Main page
METAR-TAF:

METAR-TAF

Airports :

Marianna Municipal Airport

Marianna, Florida, United States

latitude: 30-50-12N, longitude: 085-11-01W, elevation: 112 ft

Current weather observation

The report was made 26 minutes ago, at 03:53 UTC
Wind 3 mph from the East
Temperature 70°F
Humidity 78%
Pressure 29.97 in. Hg
Visibility: 10 miles
Clear sky

METAR: KMAI 240353Z AUTO 10003KT 10SM CLR 21/17 A2997 RMK AO2 SLP148 T02110167

Time: 23:19 (04:19 UTC)


TAF: missing

Weather observations and forecasts of more than 4000 airports (METAR and TAF reports).

The available stations are represented by yellow and red dots on the map.

Hover mouse over dot to see the name of the station.

Then click to see weather observations and forecasts.

To change the map : click on the green buttons with a black cross to zoom in, on the green button with a dash to zoom out, or on the green arrows for adjacent maps.


METAR-TAF: